sensor_id;sensor_type;location;lat;lon;timestamp;P1;durP1;ratioP1;P2;durP2;ratioP2
5807;SDS011;2930;42.678;23.312;2022-11-20T00:00:28;4.13;;;0.60;;
5807;SDS011;2930;42.678;23.312;2022-11-20T00:02:54;7.07;;;0.30;;
5807;SDS011;2930;42.678;23.312;2022-11-20T00:05:20;0.95;;;0.30;;
5807;SDS011;2930;42.678;23.312;2022-11-20T00:07:46;0.28;;;0.28;;
5807;SDS011;2930;42.678;23.312;2022-11-20T00:10:11;0.65;;;0.30;;
5807;SDS011;2930;42.678;23.312;2022-11-20T00:12:37;0.30;;;0.30;;
5807;SDS011;2930;42.678;23.312;2022-11-20T00:15:03;0.28;;;0.28;;
5807;SDS011;2930;42.678;23.312;2022-11-20T00:17:29;0.45;;;0.45;;
5807;SDS011;2930;42.678;23.312;2022-11-20T00:19:55;1.75;;;0.35;;
5807;SDS011;2930;42.678;23.312;2022-11-20T00:22:21;0.30;;;0.30;;
5807;SDS011;2930;42.678;23.312;2022-11-20T00:24:47;3.85;;;0.20;;
5807;SDS011;2930;42.678;23.312;2022-11-20T00:27:12;0.98;;;0.20;;
5807;SDS011;2930;42.678;23.312;2022-11-20T00:29:38;0.20;;;0.20;;
5807;SDS011;2930;42.678;23.312;2022-11-20T00:32:04;0.95;;;0.40;;
5807;SDS011;2930;42.678;23.312;2022-11-20T00:34:29;1.38;;;0.30;;
5807;SDS011;2930;42.678;23.312;2022-11-20T00:36:55;0.30;;;0.30;;
5807;SDS011;2930;42.678;23.312;2022-11-20T00:39:20;1.55;;;0.20;;
5807;SDS011;2930;42.678;23.312;2022-11-20T00:41:46;0.90;;;0.20;;
5807;SDS011;2930;42.678;23.312;2022-11-20T00:44:12;0.20;;;0.20;;
5807;SDS011;2930;42.678;23.312;2022-11-20T00:46:37;0.20;;;0.10;;
5807;SDS011;2930;42.678;23.312;2022-11-20T00:49:03;0.30;;;0.30;;
5807;SDS011;2930;42.678;23.312;2022-11-20T00:51:29;1.17;;;0.30;;
5807;SDS011;2930;42.678;23.312;2022-11-20T00:53:55;0.20;;;0.20;;
5807;SDS011;2930;42.678;23.312;2022-11-20T00:56:21;0.30;;;0.30;;
5807;SDS011;2930;42.678;23.312;2022-11-20T00:58:47;1.70;;;0.20;;
5807;SDS011;2930;42.678;23.312;2022-11-20T01:01:20;3.20;;;0.40;;
5807;SDS011;2930;42.678;23.312;2022-11-20T01:03:50;0.20;;;0.20;;
5807;SDS011;2930;42.678;23.312;2022-11-20T01:08:56;0.20;;;0.20;;
5807;SDS011;2930;42.678;23.312;2022-11-20T01:11:25;0.30;;;0.30;;
5807;SDS011;2930;42.678;23.312;2022-11-20T01:13:57;0.20;;;0.20;;
5807;SDS011;2930;42.678;23.312;2022-11-20T01:18:51;0.25;;;0.25;;
5807;SDS011;2930;42.678;23.312;2022-11-20T01:21:20;0.35;;;0.35;;
5807;SDS011;2930;42.678;23.312;2022-11-20T01:23:47;1.55;;;0.20;;
5807;SDS011;2930;42.678;23.312;2022-11-20T01:26:16;2.90;;;0.20;;
5807;SDS011;2930;42.678;23.312;2022-11-20T01:28:44;0.30;;;0.28;;
5807;SDS011;2930;42.678;23.312;2022-11-20T01:31:19;0.95;;;0.28;;
5807;SDS011;2930;42.678;23.312;2022-11-20T01:33:47;0.20;;;0.20;;
5807;SDS011;2930;42.678;23.312;2022-11-20T01:36:14;0.10;;;0.10;;
5807;SDS011;2930;42.678;23.312;2022-11-20T01:38:41;0.20;;;0.20;;
5807;SDS011;2930;42.678;23.312;2022-11-20T01:41:07;3.45;;;0.20;;
5807;SDS011;2930;42.678;23.312;2022-11-20T01:43:34;0.20;;;0.10;;
5807;SDS011;2930;42.678;23.312;2022-11-20T01:46:16;1.13;;;0.20;;
5807;SDS011;2930;42.678;23.312;2022-11-20T01:51:13;0.20;;;0.20;;
5807;SDS011;2930;42.678;23.312;2022-11-20T01:54:02;0.25;;;0.20;;
5807;SDS011;2930;42.678;23.312;2022-11-20T01:56:33;0.57;;;0.10;;
5807;SDS011;2930;42.678;23.312;2022-11-20T01:59:02;0.32;;;0.20;;
5807;SDS011;2930;42.678;23.312;2022-11-20T02:01:30;0.30;;;0.30;;
5807;SDS011;2930;42.678;23.312;2022-11-20T02:03:56;0.95;;;0.20;;
5807;SDS011;2930;42.678;23.312;2022-11-20T02:06:25;0.88;;;0.30;;
5807;SDS011;2930;42.678;23.312;2022-11-20T02:08:53;2.08;;;0.20;;
5807;SDS011;2930;42.678;23.312;2022-11-20T02:11:19;0.57;;;0.10;;
5807;SDS011;2930;42.678;23.312;2022-11-20T02:13:45;1.60;;;0.20;;
5807;SDS011;2930;42.678;23.312;2022-11-20T02:16:13;0.88;;;0.20;;
5807;SDS011;2930;42.678;23.312;2022-11-20T02:18:50;0.17;;;0.17;;
5807;SDS011;2930;42.678;23.312;2022-11-20T02:21:37;0.10;;;0.10;;
5807;SDS011;2930;42.678;23.312;2022-11-20T02:24:20;0.65;;;0.10;;
5807;SDS011;2930;42.678;23.312;2022-11-20T02:26:57;0.30;;;0.30;;
5807;SDS011;2930;42.678;23.312;2022-11-20T02:29:38;0.30;;;0.20;;
5807;SDS011;2930;42.678;23.312;2022-11-20T02:32:19;0.15;;;0.15;;
5807;SDS011;2930;42.678;23.312;2022-11-20T02:34:46;2.30;;;0.20;;
5807;SDS011;2930;42.678;23.312;2022-11-20T02:37:12;0.20;;;0.20;;
5807;SDS011;2930;42.678;23.312;2022-11-20T02:39:38;4.38;;;0.20;;
5807;SDS011;2930;42.678;23.312;2022-11-20T02:42:05;0.40;;;0.38;;
5807;SDS011;2930;42.678;23.312;2022-11-20T02:44:31;0.13;;;0.13;;
5807;SDS011;2930;42.678;23.312;2022-11-20T02:46:57;0.38;;;0.20;;
5807;SDS011;2930;42.678;23.312;2022-11-20T02:49:23;0.73;;;0.20;;
5807;SDS011;2930;42.678;23.312;2022-11-20T02:51:49;0.20;;;0.20;;
5807;SDS011;2930;42.678;23.312;2022-11-20T02:54:15;0.43;;;0.20;;
5807;SDS011;2930;42.678;23.312;2022-11-20T02:56:40;0.20;;;0.20;;
5807;SDS011;2930;42.678;23.312;2022-11-20T02:59:06;0.25;;;0.25;;
5807;SDS011;2930;42.678;23.312;2022-11-20T03:01:32;0.35;;;0.30;;
5807;SDS011;2930;42.678;23.312;2022-11-20T03:03:58;0.60;;;0.30;;
5807;SDS011;2930;42.678;23.312;2022-11-20T03:06:24;0.50;;;0.30;;
5807;SDS011;2930;42.678;23.312;2022-11-20T03:08:49;0.30;;;0.30;;
5807;SDS011;2930;42.678;23.312;2022-11-20T03:11:15;0.20;;;0.20;;
5807;SDS011;2930;42.678;23.312;2022-11-20T03:13:41;1.45;;;0.30;;
5807;SDS011;2930;42.678;23.312;2022-11-20T03:16:11;0.30;;;0.30;;
5807;SDS011;2930;42.678;23.312;2022-11-20T03:18:42;0.40;;;0.40;;
5807;SDS011;2930;42.678;23.312;2022-11-20T03:21:09;2.65;;;0.50;;
5807;SDS011;2930;42.678;23.312;2022-11-20T03:23:35;0.38;;;0.38;;
5807;SDS011;2930;42.678;23.312;2022-11-20T03:26:17;0.65;;;0.30;;
5807;SDS011;2930;42.678;23.312;2022-11-20T03:28:49;2.05;;;0.43;;
5807;SDS011;2930;42.678;23.312;2022-11-20T03:31:20;0.80;;;0.30;;
5807;SDS011;2930;42.678;23.312;2022-11-20T03:33:47;0.40;;;0.40;;
5807;SDS011;2930;42.678;23.312;2022-11-20T03:36:14;0.20;;;0.20;;
5807;SDS011;2930;42.678;23.312;2022-11-20T03:38:41;0.85;;;0.20;;
5807;SDS011;2930;42.678;23.312;2022-11-20T03:41:08;1.45;;;0.40;;
5807;SDS011;2930;42.678;23.312;2022-11-20T03:43:39;5.60;;;0.47;;
5807;SDS011;2930;42.678;23.312;2022-11-20T03:46:05;1.33;;;0.40;;
5807;SDS011;2930;42.678;23.312;2022-11-20T03:48:31;0.20;;;0.20;;
5807;SDS011;2930;42.678;23.312;2022-11-20T03:53:54;0.40;;;0.40;;
5807;SDS011;2930;42.678;23.312;2022-11-20T03:56:24;0.22;;;0.22;;
5807;SDS011;2930;42.678;23.312;2022-11-20T03:58:52;0.20;;;0.20;;
5807;SDS011;2930;42.678;23.312;2022-11-20T04:01:19;1.02;;;0.40;;
5807;SDS011;2930;42.678;23.312;2022-11-20T04:03:46;1.35;;;0.20;;
5807;SDS011;2930;42.678;23.312;2022-11-20T04:06:13;1.85;;;0.30;;
5807;SDS011;2930;42.678;23.312;2022-11-20T04:08:39;3.03;;;0.32;;
5807;SDS011;2930;42.678;23.312;2022-11-20T04:13:35;0.30;;;0.30;;
5807;SDS011;2930;42.678;23.312;2022-11-20T04:16:01;0.20;;;0.20;;
5807;SDS011;2930;42.678;23.312;2022-11-20T04:18:26;0.50;;;0.20;;
5807;SDS011;2930;42.678;23.312;2022-11-20T04:20:52;0.40;;;0.40;;
5807;SDS011;2930;42.678;23.312;2022-11-20T04:23:17;0.45;;;0.22;;
5807;SDS011;2930;42.678;23.312;2022-11-20T04:25:43;0.38;;;0.38;;
5807;SDS011;2930;42.678;23.312;2022-11-20T04:28:09;0.20;;;0.20;;
5807;SDS011;2930;42.678;23.312;2022-11-20T04:30:34;0.40;;;0.40;;
5807;SDS011;2930;42.678;23.312;2022-11-20T04:33:00;0.20;;;0.20;;
5807;SDS011;2930;42.678;23.312;2022-11-20T04:35:26;0.25;;;0.22;;
5807;SDS011;2930;42.678;23.312;2022-11-20T04:37:51;1.27;;;0.20;;
5807;SDS011;2930;42.678;23.312;2022-11-20T04:40:17;0.50;;;0.30;;
5807;SDS011;2930;42.678;23.312;2022-11-20T04:42:43;0.20;;;0.20;;
5807;SDS011;2930;42.678;23.312;2022-11-20T04:45:08;0.65;;;0.13;;
5807;SDS011;2930;42.678;23.312;2022-11-20T04:47:34;0.68;;;0.30;;
5807;SDS011;2930;42.678;23.312;2022-11-20T04:50:00;0.32;;;0.10;;
5807;SDS011;2930;42.678;23.312;2022-11-20T04:52:26;0.20;;;0.20;;
5807;SDS011;2930;42.678;23.312;2022-11-20T04:54:51;0.32;;;0.13;;
5807;SDS011;2930;42.678;23.312;2022-11-20T04:57:18;0.98;;;0.20;;
5807;SDS011;2930;42.678;23.312;2022-11-20T04:59:44;0.32;;;0.32;;
5807;SDS011;2930;42.678;23.312;2022-11-20T05:02:10;0.20;;;0.20;;
5807;SDS011;2930;42.678;23.312;2022-11-20T05:04:36;0.40;;;0.30;;
5807;SDS011;2930;42.678;23.312;2022-11-20T05:07:02;1.00;;;0.30;;
5807;SDS011;2930;42.678;23.312;2022-11-20T05:09:27;0.98;;;0.20;;
5807;SDS011;2930;42.678;23.312;2022-11-20T05:11:53;0.10;;;0.10;;
5807;SDS011;2930;42.678;23.312;2022-11-20T05:14:19;0.10;;;0.10;;
5807;SDS011;2930;42.678;23.312;2022-11-20T05:16:44;0.20;;;0.20;;
5807;SDS011;2930;42.678;23.312;2022-11-20T05:19:10;0.60;;;0.20;;
5807;SDS011;2930;42.678;23.312;2022-11-20T05:21:35;0.20;;;0.20;;
5807;SDS011;2930;42.678;23.312;2022-11-20T05:24:01;0.17;;;0.15;;
5807;SDS011;2930;42.678;23.312;2022-11-20T05:26:27;0.57;;;0.20;;
5807;SDS011;2930;42.678;23.312;2022-11-20T05:28:52;0.25;;;0.15;;
5807;SDS011;2930;42.678;23.312;2022-11-20T05:31:19;0.38;;;0.30;;
5807;SDS011;2930;42.678;23.312;2022-11-20T05:33:46;0.32;;;0.20;;
5807;SDS011;2930;42.678;23.312;2022-11-20T05:36:13;0.70;;;0.20;;
5807;SDS011;2930;42.678;23.312;2022-11-20T05:38:39;0.75;;;0.17;;
5807;SDS011;2930;42.678;23.312;2022-11-20T05:41:09;1.88;;;0.20;;
5807;SDS011;2930;42.678;23.312;2022-11-20T05:43:40;3.60;;;0.40;;
5807;SDS011;2930;42.678;23.312;2022-11-20T05:46:07;0.52;;;0.30;;
5807;SDS011;2930;42.678;23.312;2022-11-20T05:48:34;0.40;;;0.28;;
5807;SDS011;2930;42.678;23.312;2022-11-20T05:51:01;0.20;;;0.20;;
5807;SDS011;2930;42.678;23.312;2022-11-20T05:53:28;0.20;;;0.20;;
5807;SDS011;2930;42.678;23.312;2022-11-20T05:56:04;2.17;;;0.20;;
5807;SDS011;2930;42.678;23.312;2022-11-20T05:58:32;1.80;;;0.40;;
5807;SDS011;2930;42.678;23.312;2022-11-20T06:01:05;0.20;;;0.20;;
5807;SDS011;2930;42.678;23.312;2022-11-20T06:03:34;1.65;;;0.25;;
5807;SDS011;2930;42.678;23.312;2022-11-20T06:06:00;3.40;;;0.40;;
5807;SDS011;2930;42.678;23.312;2022-11-20T06:08:27;0.20;;;0.20;;
5807;SDS011;2930;42.678;23.312;2022-11-20T06:10:52;0.30;;;0.30;;
5807;SDS011;2930;42.678;23.312;2022-11-20T06:13:18;0.40;;;0.25;;
5807;SDS011;2930;42.678;23.312;2022-11-20T06:15:50;0.55;;;0.30;;
5807;SDS011;2930;42.678;23.312;2022-11-20T06:18:17;0.43;;;0.40;;
5807;SDS011;2930;42.678;23.312;2022-11-20T06:20:43;0.35;;;0.30;;
5807;SDS011;2930;42.678;23.312;2022-11-20T06:23:09;0.47;;;0.20;;
5807;SDS011;2930;42.678;23.312;2022-11-20T06:25:39;1.05;;;0.20;;
5807;SDS011;2930;42.678;23.312;2022-11-20T06:28:05;0.20;;;0.20;;
5807;SDS011;2930;42.678;23.312;2022-11-20T06:30:32;0.38;;;0.38;;
5807;SDS011;2930;42.678;23.312;2022-11-20T06:32:57;0.28;;;0.28;;
5807;SDS011;2930;42.678;23.312;2022-11-20T06:35:23;0.22;;;0.22;;
5807;SDS011;2930;42.678;23.312;2022-11-20T06:37:49;0.57;;;0.30;;
5807;SDS011;2930;42.678;23.312;2022-11-20T06:40:14;0.25;;;0.25;;
5807;SDS011;2930;42.678;23.312;2022-11-20T06:42:40;2.83;;;0.57;;
5807;SDS011;2930;42.678;23.312;2022-11-20T06:45:06;0.47;;;0.47;;
5807;SDS011;2930;42.678;23.312;2022-11-20T06:47:32;1.33;;;0.40;;
5807;SDS011;2930;42.678;23.312;2022-11-20T06:49:58;0.30;;;0.30;;
5807;SDS011;2930;42.678;23.312;2022-11-20T06:52:24;1.55;;;0.30;;
5807;SDS011;2930;42.678;23.312;2022-11-20T06:54:49;0.40;;;0.40;;
5807;SDS011;2930;42.678;23.312;2022-11-20T06:57:15;0.25;;;0.25;;
5807;SDS011;2930;42.678;23.312;2022-11-20T06:59:41;0.20;;;0.20;;
5807;SDS011;2930;42.678;23.312;2022-11-20T07:02:09;0.30;;;0.30;;
5807;SDS011;2930;42.678;23.312;2022-11-20T07:04:38;0.40;;;0.30;;
5807;SDS011;2930;42.678;23.312;2022-11-20T07:07:04;0.30;;;0.30;;
5807;SDS011;2930;42.678;23.312;2022-11-20T07:09:32;0.38;;;0.38;;
5807;SDS011;2930;42.678;23.312;2022-11-20T07:11:58;0.30;;;0.30;;
5807;SDS011;2930;42.678;23.312;2022-11-20T07:14:24;0.30;;;0.30;;
5807;SDS011;2930;42.678;23.312;2022-11-20T07:16:50;0.55;;;0.25;;
5807;SDS011;2930;42.678;23.312;2022-11-20T07:19:15;1.35;;;0.22;;
5807;SDS011;2930;42.678;23.312;2022-11-20T07:21:41;0.28;;;0.28;;
5807;SDS011;2930;42.678;23.312;2022-11-20T07:24:07;3.10;;;0.43;;
5807;SDS011;2930;42.678;23.312;2022-11-20T07:26:32;0.45;;;0.30;;
5807;SDS011;2930;42.678;23.312;2022-11-20T07:28:58;0.40;;;0.30;;
5807;SDS011;2930;42.678;23.312;2022-11-20T07:31:24;1.13;;;0.30;;
5807;SDS011;2930;42.678;23.312;2022-11-20T07:33:49;0.20;;;0.20;;
5807;SDS011;2930;42.678;23.312;2022-11-20T07:36:15;1.17;;;0.35;;
5807;SDS011;2930;42.678;23.312;2022-11-20T07:38:41;0.30;;;0.30;;
5807;SDS011;2930;42.678;23.312;2022-11-20T07:41:06;0.95;;;0.40;;
5807;SDS011;2930;42.678;23.312;2022-11-20T07:43:32;0.77;;;0.22;;
5807;SDS011;2930;42.678;23.312;2022-11-20T07:45:58;0.20;;;0.20;;
5807;SDS011;2930;42.678;23.312;2022-11-20T07:48:24;0.25;;;0.25;;
5807;SDS011;2930;42.678;23.312;2022-11-20T07:50:56;0.30;;;0.30;;
5807;SDS011;2930;42.678;23.312;2022-11-20T07:53:22;0.40;;;0.38;;
5807;SDS011;2930;42.678;23.312;2022-11-20T07:55:48;0.50;;;0.50;;
5807;SDS011;2930;42.678;23.312;2022-11-20T07:58:17;1.65;;;0.63;;
5807;SDS011;2930;42.678;23.312;2022-11-20T08:00:43;0.52;;;0.40;;
5807;SDS011;2930;42.678;23.312;2022-11-20T08:03:09;1.90;;;0.63;;
5807;SDS011;2930;42.678;23.312;2022-11-20T08:05:35;1.45;;;0.50;;
5807;SDS011;2930;42.678;23.312;2022-11-20T08:08:00;0.50;;;0.50;;
5807;SDS011;2930;42.678;23.312;2022-11-20T08:10:26;1.48;;;0.40;;
5807;SDS011;2930;42.678;23.312;2022-11-20T08:12:52;4.13;;;0.60;;
5807;SDS011;2930;42.678;23.312;2022-11-20T08:15:37;0.40;;;0.40;;
5807;SDS011;2930;42.678;23.312;2022-11-20T08:18:05;1.05;;;0.47;;
5807;SDS011;2930;42.678;23.312;2022-11-20T08:20:36;0.20;;;0.20;;
5807;SDS011;2930;42.678;23.312;2022-11-20T08:23:03;0.30;;;0.30;;
5807;SDS011;2930;42.678;23.312;2022-11-20T08:25:31;0.25;;;0.25;;
5807;SDS011;2930;42.678;23.312;2022-11-20T08:27:58;0.52;;;0.40;;
5807;SDS011;2930;42.678;23.312;2022-11-20T08:30:24;0.75;;;0.55;;
5807;SDS011;2930;42.678;23.312;2022-11-20T08:32:50;0.65;;;0.65;;
5807;SDS011;2930;42.678;23.312;2022-11-20T08:35:16;2.38;;;0.57;;
5807;SDS011;2930;42.678;23.312;2022-11-20T08:37:41;3.05;;;0.75;;
5807;SDS011;2930;42.678;23.312;2022-11-20T08:40:10;0.60;;;0.60;;
5807;SDS011;2930;42.678;23.312;2022-11-20T08:42:36;3.45;;;0.65;;
5807;SDS011;2930;42.678;23.312;2022-11-20T08:45:02;0.70;;;0.70;;
5807;SDS011;2930;42.678;23.312;2022-11-20T08:47:29;0.28;;;0.20;;
5807;SDS011;2930;42.678;23.312;2022-11-20T08:49:55;2.50;;;0.30;;
5807;SDS011;2930;42.678;23.312;2022-11-20T08:52:20;1.60;;;0.32;;
5807;SDS011;2930;42.678;23.312;2022-11-20T08:54:46;1.48;;;0.50;;
5807;SDS011;2930;42.678;23.312;2022-11-20T08:57:12;0.40;;;0.40;;
5807;SDS011;2930;42.678;23.312;2022-11-20T08:59:37;0.90;;;0.80;;
5807;SDS011;2930;42.678;23.312;2022-11-20T09:02:03;0.60;;;0.60;;
5807;SDS011;2930;42.678;23.312;2022-11-20T09:04:28;1.80;;;0.70;;
5807;SDS011;2930;42.678;23.312;2022-11-20T09:06:54;1.48;;;0.88;;
5807;SDS011;2930;42.678;23.312;2022-11-20T09:09:20;0.60;;;0.60;;
5807;SDS011;2930;42.678;23.312;2022-11-20T09:11:45;0.85;;;0.85;;
5807;SDS011;2930;42.678;23.312;2022-11-20T09:14:11;0.70;;;0.70;;
5807;SDS011;2930;42.678;23.312;2022-11-20T09:16:37;0.82;;;0.80;;
5807;SDS011;2930;42.678;23.312;2022-11-20T09:19:02;1.90;;;0.82;;
5807;SDS011;2930;42.678;23.312;2022-11-20T09:21:28;0.60;;;0.60;;
5807;SDS011;2930;42.678;23.312;2022-11-20T09:23:53;0.55;;;0.38;;
5807;SDS011;2930;42.678;23.312;2022-11-20T09:26:19;1.60;;;0.50;;
5807;SDS011;2930;42.678;23.312;2022-11-20T09:28:47;3.30;;;0.65;;
5807;SDS011;2930;42.678;23.312;2022-11-20T09:31:22;0.30;;;0.30;;
5807;SDS011;2930;42.678;23.312;2022-11-20T09:33:50;0.40;;;0.40;;
5807;SDS011;2930;42.678;23.312;2022-11-20T09:36:16;0.65;;;0.32;;
5807;SDS011;2930;42.678;23.312;2022-11-20T09:38:43;0.30;;;0.30;;
5807;SDS011;2930;42.678;23.312;2022-11-20T09:41:16;1.55;;;0.45;;
5807;SDS011;2930;42.678;23.312;2022-11-20T09:47:02;2.78;;;0.45;;
5807;SDS011;2930;42.678;23.312;2022-11-20T09:52:53;0.52;;;0.40;;
5807;SDS011;2930;42.678;23.312;2022-11-20T09:55:36;3.60;;;0.90;;
5807;SDS011;2930;42.678;23.312;2022-11-20T09:58:04;0.80;;;0.60;;
5807;SDS011;2930;42.678;23.312;2022-11-20T10:00:32;0.60;;;0.40;;
5807;SDS011;2930;42.678;23.312;2022-11-20T10:03:01;1.98;;;0.40;;
5807;SDS011;2930;42.678;23.312;2022-11-20T10:11:20;5.22;;;0.80;;
5807;SDS011;2930;42.678;23.312;2022-11-20T10:14:18;2.88;;;0.80;;
5807;SDS011;2930;42.678;23.312;2022-11-20T10:17:13;0.80;;;0.80;;
5807;SDS011;2930;42.678;23.312;2022-11-20T10:25:31;0.80;;;0.80;;
5807;SDS011;2930;42.678;23.312;2022-11-20T10:30:51;1.00;;;1.00;;
5807;SDS011;2930;42.678;23.312;2022-11-20T10:33:25;1.42;;;1.17;;
5807;SDS011;2930;42.678;23.312;2022-11-20T10:38:28;1.10;;;1.00;;
5807;SDS011;2930;42.678;23.312;2022-11-20T10:41:02;0.90;;;0.90;;
5807;SDS011;2930;42.678;23.312;2022-11-20T10:47:16;0.80;;;0.80;;
5807;SDS011;2930;42.678;23.312;2022-11-20T10:49:44;1.50;;;0.95;;
5807;SDS011;2930;42.678;23.312;2022-11-20T10:52:16;2.58;;;1.25;;
5807;SDS011;2930;42.678;23.312;2022-11-20T10:55:15;1.08;;;1.05;;
5807;SDS011;2930;42.678;23.312;2022-11-20T11:00:41;2.80;;;1.20;;
5807;SDS011;2930;42.678;23.312;2022-11-20T11:03:40;3.85;;;1.20;;
5807;SDS011;2930;42.678;23.312;2022-11-20T11:08:28;1.38;;;0.82;;
5807;SDS011;2930;42.678;23.312;2022-11-20T11:11:00;0.60;;;0.52;;
5807;SDS011;2930;42.678;23.312;2022-11-20T11:13:35;2.20;;;0.50;;
5807;SDS011;2930;42.678;23.312;2022-11-20T11:16:02;1.60;;;0.50;;
5807;SDS011;2930;42.678;23.312;2022-11-20T11:18:32;0.43;;;0.43;;
5807;SDS011;2930;42.678;23.312;2022-11-20T11:21:00;0.90;;;0.35;;
5807;SDS011;2930;42.678;23.312;2022-11-20T11:25:56;0.75;;;0.17;;
5807;SDS011;2930;42.678;23.312;2022-11-20T11:28:23;0.20;;;0.10;;
5807;SDS011;2930;42.678;23.312;2022-11-20T11:30:52;0.10;;;0.10;;
5807;SDS011;2930;42.678;23.312;2022-11-20T11:33:19;0.80;;;0.17;;
5807;SDS011;2930;42.678;23.312;2022-11-20T11:35:46;1.65;;;0.10;;
5807;SDS011;2930;42.678;23.312;2022-11-20T11:38:34;0.00;;;0.00;;
5807;SDS011;2930;42.678;23.312;2022-11-20T11:41:19;0.95;;;0.10;;
5807;SDS011;2930;42.678;23.312;2022-11-20T11:43:52;0.10;;;0.10;;
5807;SDS011;2930;42.678;23.312;2022-11-20T11:46:54;0.10;;;0.10;;
5807;SDS011;2930;42.678;23.312;2022-11-20T11:49:21;0.90;;;0.20;;
5807;SDS011;2930;42.678;23.312;2022-11-20T11:51:52;0.43;;;0.20;;
5807;SDS011;2930;42.678;23.312;2022-11-20T11:54:51;0.55;;;0.40;;
5807;SDS011;2930;42.678;23.312;2022-11-20T11:59:59;3.92;;;0.22;;
5807;SDS011;2930;42.678;23.312;2022-11-20T12:05:10;2.00;;;0.20;;
5807;SDS011;2930;42.678;23.312;2022-11-20T12:07:49;0.75;;;0.20;;
5807;SDS011;2930;42.678;23.312;2022-11-20T12:10:37;1.65;;;0.30;;
5807;SDS011;2930;42.678;23.312;2022-11-20T12:13:24;0.10;;;0.10;;
5807;SDS011;2930;42.678;23.312;2022-11-20T12:15:51;1.75;;;0.30;;
5807;SDS011;2930;42.678;23.312;2022-11-20T12:18:18;0.15;;;0.10;;
5807;SDS011;2930;42.678;23.312;2022-11-20T12:23:44;0.28;;;0.28;;
5807;SDS011;2930;42.678;23.312;2022-11-20T12:29:23;0.20;;;0.20;;
5807;SDS011;2930;42.678;23.312;2022-11-20T12:31:56;0.17;;;0.10;;
5807;SDS011;2930;42.678;23.312;2022-11-20T12:43:26;0.10;;;0.10;;
5807;SDS011;2930;42.678;23.312;2022-11-20T12:48:38;0.10;;;0.10;;
5807;SDS011;2930;42.678;23.312;2022-11-20T12:54:00;0.10;;;0.10;;
5807;SDS011;2930;42.678;23.312;2022-11-20T12:56:50;1.88;;;0.22;;
5807;SDS011;2930;42.678;23.312;2022-11-20T13:02:33;1.27;;;0.50;;
5807;SDS011;2930;42.678;23.312;2022-11-20T13:05:21;2.42;;;0.90;;
5807;SDS011;2930;42.678;23.312;2022-11-20T13:08:02;1.38;;;0.95;;
5807;SDS011;2930;42.678;23.312;2022-11-20T13:16:17;2.00;;;0.55;;
5807;SDS011;2930;42.678;23.312;2022-11-20T13:18:50;1.02;;;1.00;;
5807;SDS011;2930;42.678;23.312;2022-11-20T13:21:20;0.88;;;0.88;;
5807;SDS011;2930;42.678;23.312;2022-11-20T13:23:48;1.10;;;0.70;;
5807;SDS011;2930;42.678;23.312;2022-11-20T13:26:23;1.92;;;1.05;;
5807;SDS011;2930;42.678;23.312;2022-11-20T13:29:03;0.82;;;0.82;;
5807;SDS011;2930;42.678;23.312;2022-11-20T13:31:43;2.15;;;0.70;;
5807;SDS011;2930;42.678;23.312;2022-11-20T13:34:12;1.33;;;1.23;;
5807;SDS011;2930;42.678;23.312;2022-11-20T13:36:51;1.00;;;0.98;;
5807;SDS011;2930;42.678;23.312;2022-11-20T13:39:26;1.45;;;0.98;;
5807;SDS011;2930;42.678;23.312;2022-11-20T13:41:54;2.42;;;1.52;;
5807;SDS011;2930;42.678;23.312;2022-11-20T13:44:33;1.02;;;1.00;;
5807;SDS011;2930;42.678;23.312;2022-11-20T13:47:04;1.52;;;1.42;;
5807;SDS011;2930;42.678;23.312;2022-11-20T13:49:49;3.05;;;1.13;;
5807;SDS011;2930;42.678;23.312;2022-11-20T13:52:37;4.55;;;1.52;;
5807;SDS011;2930;42.678;23.312;2022-11-20T13:55:38;1.00;;;1.00;;
5807;SDS011;2930;42.678;23.312;2022-11-20T14:01:20;1.02;;;1.02;;
5807;SDS011;2930;42.678;23.312;2022-11-20T14:03:48;1.70;;;1.30;;
5807;SDS011;2930;42.678;23.312;2022-11-20T14:09:10;1.52;;;1.05;;
5807;SDS011;2930;42.678;23.312;2022-11-20T14:11:45;1.38;;;1.20;;
5807;SDS011;2930;42.678;23.312;2022-11-20T14:14:18;0.73;;;0.70;;
5807;SDS011;2930;42.678;23.312;2022-11-20T14:16:46;1.65;;;1.10;;
5807;SDS011;2930;42.678;23.312;2022-11-20T14:21:53;2.55;;;0.90;;
5807;SDS011;2930;42.678;23.312;2022-11-20T14:24:39;1.70;;;1.60;;
5807;SDS011;2930;42.678;23.312;2022-11-20T14:27:09;3.65;;;1.13;;
5807;SDS011;2930;42.678;23.312;2022-11-20T14:29:39;2.47;;;1.52;;
5807;SDS011;2930;42.678;23.312;2022-11-20T14:32:08;1.27;;;1.25;;
5807;SDS011;2930;42.678;23.312;2022-11-20T14:34:38;2.90;;;1.27;;
5807;SDS011;2930;42.678;23.312;2022-11-20T14:37:09;2.85;;;1.27;;
5807;SDS011;2930;42.678;23.312;2022-11-20T14:39:40;1.52;;;1.08;;
5807;SDS011;2930;42.678;23.312;2022-11-20T14:42:17;1.85;;;1.33;;
5807;SDS011;2930;42.678;23.312;2022-11-20T14:44:48;2.17;;;1.40;;
5807;SDS011;2930;42.678;23.312;2022-11-20T14:47:17;1.55;;;1.45;;
5807;SDS011;2930;42.678;23.312;2022-11-20T14:49:45;1.90;;;1.10;;
5807;SDS011;2930;42.678;23.312;2022-11-20T14:54:51;0.65;;;0.65;;
5807;SDS011;2930;42.678;23.312;2022-11-20T15:02:45;1.13;;;0.50;;
5807;SDS011;2930;42.678;23.312;2022-11-20T15:05:12;1.58;;;0.40;;
5807;SDS011;2930;42.678;23.312;2022-11-20T15:07:43;0.50;;;0.50;;
5807;SDS011;2930;42.678;23.312;2022-11-20T15:10:21;0.50;;;0.50;;
5807;SDS011;2930;42.678;23.312;2022-11-20T15:12:50;0.50;;;0.50;;
5807;SDS011;2930;42.678;23.312;2022-11-20T15:17:50;0.60;;;0.60;;
5807;SDS011;2930;42.678;23.312;2022-11-20T15:20:16;1.45;;;0.77;;
5807;SDS011;2930;42.678;23.312;2022-11-20T15:22:43;1.50;;;0.80;;
5807;SDS011;2930;42.678;23.312;2022-11-20T15:25:15;1.30;;;0.70;;
5807;SDS011;2930;42.678;23.312;2022-11-20T15:27:42;0.65;;;0.65;;
5807;SDS011;2930;42.678;23.312;2022-11-20T15:30:16;0.90;;;0.90;;
5807;SDS011;2930;42.678;23.312;2022-11-20T15:32:43;0.60;;;0.60;;
5807;SDS011;2930;42.678;23.312;2022-11-20T15:35:09;0.57;;;0.57;;
5807;SDS011;2930;42.678;23.312;2022-11-20T15:37:37;0.60;;;0.60;;
5807;SDS011;2930;42.678;23.312;2022-11-20T15:40:03;0.60;;;0.35;;
5807;SDS011;2930;42.678;23.312;2022-11-20T15:42:30;0.50;;;0.50;;
5807;SDS011;2930;42.678;23.312;2022-11-20T15:44:56;0.68;;;0.68;;
5807;SDS011;2930;42.678;23.312;2022-11-20T15:47:32;2.75;;;0.65;;
5807;SDS011;2930;42.678;23.312;2022-11-20T15:49:59;0.82;;;0.60;;
5807;SDS011;2930;42.678;23.312;2022-11-20T15:52:25;5.38;;;1.25;;
5807;SDS011;2930;42.678;23.312;2022-11-20T15:54:50;2.20;;;0.82;;
5807;SDS011;2930;42.678;23.312;2022-11-20T15:57:16;1.33;;;0.70;;
5807;SDS011;2930;42.678;23.312;2022-11-20T15:59:42;2.40;;;0.85;;
5807;SDS011;2930;42.678;23.312;2022-11-20T16:02:10;3.40;;;0.85;;
5807;SDS011;2930;42.678;23.312;2022-11-20T16:04:37;0.68;;;0.60;;
5807;SDS011;2930;42.678;23.312;2022-11-20T16:07:03;0.40;;;0.40;;
5807;SDS011;2930;42.678;23.312;2022-11-20T16:09:29;1.58;;;0.50;;
5807;SDS011;2930;42.678;23.312;2022-11-20T16:11:55;2.08;;;0.50;;
5807;SDS011;2930;42.678;23.312;2022-11-20T16:14:23;4.15;;;0.40;;
5807;SDS011;2930;42.678;23.312;2022-11-20T16:17:07;1.48;;;0.40;;
5807;SDS011;2930;42.678;23.312;2022-11-20T16:19:32;1.42;;;0.40;;
5807;SDS011;2930;42.678;23.312;2022-11-20T16:21:58;0.40;;;0.40;;
5807;SDS011;2930;42.678;23.312;2022-11-20T16:24:26;4.15;;;0.73;;
5807;SDS011;2930;42.678;23.312;2022-11-20T16:26:52;3.03;;;0.40;;
5807;SDS011;2930;42.678;23.312;2022-11-20T16:29:18;0.30;;;0.30;;
5807;SDS011;2930;42.678;23.312;2022-11-20T16:31:44;1.52;;;0.43;;
5807;SDS011;2930;42.678;23.312;2022-11-20T16:34:10;1.60;;;0.43;;
5807;SDS011;2930;42.678;23.312;2022-11-20T16:36:35;0.47;;;0.47;;
5807;SDS011;2930;42.678;23.312;2022-11-20T16:39:04;0.40;;;0.40;;
5807;SDS011;2930;42.678;23.312;2022-11-20T16:41:31;1.08;;;0.32;;
5807;SDS011;2930;42.678;23.312;2022-11-20T16:43:58;1.40;;;0.45;;
5807;SDS011;2930;42.678;23.312;2022-11-20T16:46:26;0.57;;;0.45;;
5807;SDS011;2930;42.678;23.312;2022-11-20T16:51:26;0.40;;;0.40;;
5807;SDS011;2930;42.678;23.312;2022-11-20T16:53:53;0.40;;;0.40;;
5807;SDS011;2930;42.678;23.312;2022-11-20T16:56:20;0.35;;;0.35;;